Time;durP1;ratioP1;P1;durP2;ratioP2;P2;SDS_P1;SDS_P2;PMS_P1;PMS_P2;Temp;Humidity;BMP_temperature;BMP_pressure;BME280_temperature;BME280_humidity;BME280_pressure;Samples;Min_cycle;Max_cycle;Signal;HPM_P1;HPM_P2
2023/11/30 00:01:55;;;;;;;10.68;6.38;;;0.80;99.90;;;;;;5014327;28;20037;-76
2023/11/30 00:04:21;;;;;;;13.25;6.55;;;0.80;99.90;;;;;;4997568;28;20048;-76
2023/11/30 00:06:47;;;;;;;12.13;6.93;;;0.90;99.90;;;;;;5003033;28;20042;-76
2023/11/30 00:09:12;;;;;;;14.25;6.18;;;1.00;99.90;;;;;;5009723;28;20045;-76
2023/11/30 00:11:38;;;;;;;11.88;6.25;;;0.90;99.90;;;;;;5014106;28;20038;-76
2023/11/30 00:14:03;;;;;;;11.13;6.03;;;0.80;99.90;;;;;;5013724;28;20575;-76
2023/11/30 00:16:29;;;;;;;12.13;6.85;;;0.80;99.90;;;;;;5013560;28;20614;-76
2023/11/30 00:18:55;;;;;;;11.20;6.40;;;1.00;99.90;;;;;;5014980;28;20034;-76
2023/11/30 00:21:21;;;;;;;13.15;6.60;;;1.00;99.90;;;;;;5014004;28;20401;-76
2023/11/30 00:23:47;;;;;;;11.77;6.43;;;0.90;99.90;;;;;;5013492;28;20041;-76
2023/11/30 00:26:14;;;;;;;11.30;5.82;;;0.70;99.90;;;;;;4996812;28;20049;-76
2023/11/30 00:28:40;;;;;;;12.68;6.35;;;0.90;99.90;;;;;;5013605;28;20050;-76
2023/11/30 00:31:06;;;;;;;11.70;6.68;;;0.90;99.90;;;;;;5013863;28;20053;-76
2023/11/30 00:33:32;;;;;;;10.45;6.00;;;0.80;99.90;;;;;;5013170;28;20038;-77
2023/11/30 00:35:57;;;;;;;10.75;5.90;;;0.90;99.90;;;;;;5014536;28;20386;-76
2023/11/30 00:38:23;;;;;;;13.07;5.88;;;0.70;99.90;;;;;;5013525;28;20065;-76
2023/11/30 00:40:49;;;;;;;9.75;5.53;;;0.70;99.90;;;;;;5013710;28;20073;-75
2023/11/30 00:43:14;;;;;;;12.75;5.43;;;0.90;99.90;;;;;;5013536;28;20097;-75
2023/11/30 00:45:40;;;;;;;12.95;6.65;;;0.90;99.90;;;;;;5013360;28;20037;-76
2023/11/30 00:48:05;;;;;;;12.82;5.18;;;0.60;99.90;;;;;;5013321;28;20046;-76
2023/11/30 00:50:31;;;;;;;9.30;5.70;;;0.60;99.90;;;;;;5013208;28;20041;-75
2023/11/30 00:52:57;;;;;;;9.23;5.35;;;0.60;99.90;;;;;;5011621;28;20030;-75
2023/11/30 00:55:22;;;;;;;8.82;5.35;;;0.80;99.90;;;;;;5011874;28;20050;-76
2023/11/30 00:57:49;;;;;;;11.27;5.85;;;0.70;99.90;;;;;;5012984;28;20065;-76
2023/11/30 01:00:15;;;;;;;10.50;5.35;;;0.70;99.90;;;;;;5013152;28;20168;-76
2023/11/30 01:02:41;;;;;;;11.73;5.78;;;0.80;99.90;;;;;;4996236;28;20037;-76
2023/11/30 01:05:07;;;;;;;8.93;4.70;;;0.90;99.90;;;;;;5013035;28;20049;-76
2023/11/30 01:07:33;;;;;;;10.60;6.07;;;1.00;99.90;;;;;;4996530;28;20042;-76
2023/11/30 01:09:59;;;;;;;10.13;5.45;;;0.80;99.90;;;;;;5013203;28;20069;-76
2023/11/30 01:12:26;;;;;;;11.73;6.47;;;0.90;99.90;;;;;;4996687;28;20085;-76
2023/11/30 01:14:52;;;;;;;9.85;5.18;;;0.90;99.90;;;;;;5012744;28;20422;-76
2023/11/30 01:17:18;;;;;;;11.70;5.53;;;0.70;99.90;;;;;;5012800;28;20502;-76
2023/11/30 01:19:43;;;;;;;11.20;5.63;;;0.70;99.90;;;;;;5012760;28;20038;-76
2023/11/30 01:22:09;;;;;;;22.73;5.53;;;0.80;99.90;;;;;;5012991;28;20456;-76
2023/11/30 01:24:35;;;;;;;8.95;5.60;;;0.60;99.90;;;;;;5012544;28;20501;-76
2023/11/30 01:27:00;;;;;;;8.40;4.80;;;0.70;99.90;;;;;;4996123;28;20049;-76
2023/11/30 01:29:26;;;;;;;11.90;5.68;;;0.70;99.90;;;;;;5012847;28;20041;-76
2023/11/30 01:31:51;;;;;;;10.45;5.35;;;0.80;99.90;;;;;;4996110;28;20130;-76
2023/11/30 01:34:17;;;;;;;10.43;5.97;;;0.80;99.90;;;;;;5016351;28;20041;-74
2023/11/30 01:36:43;;;;;;;10.88;5.20;;;0.90;99.90;;;;;;5021979;28;20049;-74
2023/11/30 01:39:09;;;;;;;9.13;4.50;;;0.70;99.90;;;;;;5022241;28;20075;-74
2023/11/30 01:41:38;;;;;;;19.13;6.55;;;0.70;99.90;;;;;;5021189;28;20046;-74
2023/11/30 01:44:05;;;;;;;10.40;5.40;;;0.60;99.90;;;;;;5021788;28;20050;-74
2023/11/30 01:46:31;;;;;;;9.77;5.20;;;0.60;99.90;;;;;;5020426;28;20050;-74
2023/11/30 01:48:58;;;;;;;10.95;5.65;;;0.60;99.90;;;;;;5021559;28;20030;-74
2023/11/30 01:51:25;;;;;;;9.13;5.30;;;0.60;99.90;;;;;;5021048;28;20619;-74
2023/11/30 01:53:53;;;;;;;9.48;5.22;;;0.60;99.90;;;;;;5020550;28;20122;-74
2023/11/30 01:56:20;;;;;;;7.32;4.68;;;0.60;99.90;;;;;;5021536;28;20053;-74
2023/11/30 01:58:46;;;;;;;9.70;5.60;;;0.70;99.90;;;;;;5004117;28;20046;-75
2023/11/30 02:01:12;;;;;;;8.98;4.68;;;0.70;99.90;;;;;;5020175;28;20053;-74
2023/11/30 02:03:38;;;;;;;9.18;5.13;;;0.60;99.90;;;;;;5020408;28;20425;-74
2023/11/30 02:06:04;;;;;;;7.65;4.65;;;0.60;99.90;;;;;;5020760;28;20125;-74
2023/11/30 02:08:30;;;;;;;7.65;4.20;;;0.80;99.90;;;;;;5022092;28;20092;-74
2023/11/30 02:10:56;;;;;;;9.50;4.43;;;0.60;99.90;;;;;;5021012;28;20041;-74
2023/11/30 02:13:24;;;;;;;9.43;5.10;;;0.80;99.90;;;;;;5019550;28;20067;-74
2023/11/30 02:15:50;;;;;;;6.13;3.67;;;0.60;99.90;;;;;;5021228;28;20053;-74
2023/11/30 02:18:16;;;;;;;8.13;4.22;;;0.70;99.90;;;;;;5020882;28;20038;-74
2023/11/30 02:20:41;;;;;;;7.18;4.50;;;0.50;99.90;;;;;;5020883;28;20042;-74
2023/11/30 02:23:07;;;;;;;8.23;4.30;;;0.60;99.90;;;;;;5021262;28;20102;-74
2023/11/30 02:25:32;;;;;;;7.60;4.10;;;0.40;99.90;;;;;;5019548;28;20203;-74
2023/11/30 02:27:58;;;;;;;8.65;5.35;;;0.60;99.90;;;;;;5021690;28;20038;-74
2023/11/30 02:30:25;;;;;;;7.45;3.83;;;0.60;99.90;;;;;;5020910;28;20046;-74
2023/11/30 02:32:50;;;;;;;6.68;3.85;;;0.40;99.90;;;;;;5021557;28;20073;-73
2023/11/30 02:35:16;;;;;;;6.82;3.72;;;0.60;99.90;;;;;;5020948;28;20394;-75
2023/11/30 02:37:42;;;;;;;5.78;3.88;;;0.60;99.90;;;;;;5020365;28;20050;-74
2023/11/30 02:40:08;;;;;;;6.78;3.90;;;0.50;99.90;;;;;;5019970;28;20053;-74
2023/11/30 02:42:33;;;;;;;7.68;4.32;;;0.50;99.90;;;;;;5015251;28;20045;-74
2023/11/30 02:44:59;;;;;;;8.27;4.55;;;0.50;99.90;;;;;;5020048;28;20041;-74
2023/11/30 02:47:25;;;;;;;6.65;3.78;;;0.50;99.90;;;;;;5019807;28;20048;-74
2023/11/30 02:49:50;;;;;;;6.78;3.95;;;0.50;99.90;;;;;;5003542;28;20076;-74
2023/11/30 02:52:16;;;;;;;5.95;3.58;;;0.40;99.90;;;;;;5020172;28;20053;-74
2023/11/30 02:54:41;;;;;;;11.35;4.45;;;0.50;99.90;;;;;;5021263;28;20038;-75
2023/11/30 02:57:07;;;;;;;6.65;3.88;;;0.40;99.90;;;;;;5020864;28;20044;-74
2023/11/30 02:59:33;;;;;;;6.57;3.78;;;0.40;99.90;;;;;;5020459;28;20510;-74
2023/11/30 03:01:58;;;;;;;7.13;4.10;;;0.30;99.90;;;;;;5020374;28;20061;-74
2023/11/30 03:04:24;;;;;;;7.38;4.25;;;0.30;99.90;;;;;;5019655;28;20527;-74
2023/11/30 03:06:50;;;;;;;7.22;4.03;;;0.30;99.90;;;;;;5002435;28;20041;-75
2023/11/30 03:09:16;;;;;;;40.58;6.88;;;0.50;99.90;;;;;;5020264;28;20034;-74
2023/11/30 03:11:42;;;;;;;7.30;4.45;;;0.40;99.90;;;;;;5018029;28;20045;-74
2023/11/30 03:14:07;;;;;;;7.22;4.25;;;0.30;99.90;;;;;;5020150;28;20410;-74
2023/11/30 03:16:33;;;;;;;6.90;4.18;;;0.30;99.90;;;;;;5020189;28;20405;-74
2023/11/30 03:18:59;;;;;;;22.55;5.72;;;0.30;99.90;;;;;;5019634;28;20501;-75
2023/11/30 03:21:25;;;;;;;6.93;3.90;;;0.20;99.90;;;;;;5002086;28;20080;-74
2023/11/30 03:23:51;;;;;;;6.70;4.07;;;0.20;99.90;;;;;;5018183;28;20048;-74
2023/11/30 03:26:17;;;;;;;6.35;3.78;;;0.20;99.90;;;;;;5019280;28;20041;-74
2023/11/30 03:28:44;;;;;;;4.80;3.15;;;0.20;99.90;;;;;;5018712;28;20544;-74
2023/11/30 03:31:09;;;;;;;10.18;4.80;;;0.20;99.90;;;;;;5019068;28;20045;-74
2023/11/30 03:33:35;;;;;;;8.93;4.75;;;0.30;99.90;;;;;;5018147;28;20058;-74
2023/11/30 03:36:01;;;;;;;12.60;4.97;;;0.20;99.90;;;;;;5020260;28;20040;-73
2023/11/30 03:38:26;;;;;;;12.73;4.47;;;0.10;99.90;;;;;;5020507;28;20076;-74
2023/11/30 03:40:52;;;;;;;7.50;4.32;;;0.10;99.90;;;;;;5017322;28;20077;-74
2023/11/30 03:43:17;;;;;;;6.60;4.03;;;-0.10;99.90;;;;;;5017846;28;20513;-74
2023/11/30 03:45:43;;;;;;;8.85;4.78;;;-0.20;99.90;;;;;;5018587;28;20050;-74
2023/11/30 03:48:09;;;;;;;7.88;4.40;;;-0.20;99.90;;;;;;5019361;28;20041;-74
2023/11/30 03:50:34;;;;;;;4.88;3.53;;;-0.20;99.90;;;;;;5018909;28;20041;-74
2023/11/30 03:53:00;;;;;;;5.88;3.92;;;-0.20;99.90;;;;;;5020081;28;20035;-75
2023/11/30 03:55:26;;;;;;;7.50;4.43;;;-0.10;99.90;;;;;;5019120;28;20065;-74
2023/11/30 03:57:52;;;;;;;6.45;3.88;;;-0.30;99.90;;;;;;5003428;28;20034;-74
2023/11/30 04:00:18;;;;;;;6.55;3.90;;;-0.30;99.90;;;;;;5019590;28;20038;-74
2023/11/30 04:02:44;;;;;;;6.63;4.45;;;-0.30;99.90;;;;;;5019202;28;20042;-74
2023/11/30 04:05:13;;;;;;;7.93;4.57;;;-0.20;99.90;;;;;;5020400;28;20505;-74
2023/11/30 04:07:39;;;;;;;7.00;4.15;;;-0.30;99.90;;;;;;5019579;28;20038;-74
2023/11/30 04:10:10;;;;;;;8.82;4.10;;;-0.30;99.90;;;;;;5020556;28;20041;-74
2023/11/30 04:12:36;;;;;;;7.00;3.70;;;-0.50;99.90;;;;;;5020797;28;20084;-74
2023/11/30 04:15:02;;;;;;;6.43;4.10;;;-0.50;99.90;;;;;;5020353;28;20406;-74
2023/11/30 04:17:28;;;;;;;6.88;4.45;;;-0.50;99.90;;;;;;5019852;28;20041;-74
2023/11/30 04:19:53;;;;;;;7.20;4.57;;;-0.60;99.90;;;;;;5020015;28;20045;-74
2023/11/30 04:22:19;;;;;;;8.40;4.78;;;-0.50;99.90;;;;;;5020575;28;20050;-74
2023/11/30 04:24:45;;;;;;;7.40;4.20;;;-0.60;99.90;;;;;;5001029;28;20176;-74
2023/11/30 04:27:10;;;;;;;8.30;3.80;;;-0.40;99.90;;;;;;5017115;28;20104;-74
2023/11/30 04:29:36;;;;;;;7.15;4.43;;;-0.30;99.90;;;;;;5023605;28;20116;-74
2023/11/30 04:32:02;;;;;;;7.28;4.18;;;-0.40;99.90;;;;;;5023009;28;20068;-74
2023/11/30 04:34:29;;;;;;;6.80;4.18;;;-0.40;99.90;;;;;;5023731;28;20106;-74
2023/11/30 04:36:54;;;;;;;8.38;4.35;;;-0.40;99.90;;;;;;5023718;28;20050;-74
2023/11/30 04:39:22;;;;;;;18.52;4.68;;;-0.30;99.90;;;;;;5023774;28;20064;-74
2023/11/30 04:41:50;;;;;;;5.47;3.45;;;-0.40;99.90;;;;;;5023031;28;20038;-74
2023/11/30 04:44:16;;;;;;;6.25;3.63;;;-0.30;99.90;;;;;;5020066;28;20046;-74
2023/11/30 04:46:41;;;;;;;6.20;3.78;;;-0.50;99.90;;;;;;5004384;28;20246;-74
2023/11/30 04:49:07;;;;;;;5.13;3.45;;;-0.20;99.90;;;;;;5005126;28;20061;-74
2023/11/30 04:51:33;;;;;;;6.80;4.25;;;-0.50;99.90;;;;;;5001896;28;20391;-74
2023/11/30 04:53:58;;;;;;;6.70;3.42;;;-0.50;99.90;;;;;;5000098;28;20035;-74
2023/11/30 04:56:24;;;;;;;5.82;3.60;;;-0.50;99.90;;;;;;4999479;28;20452;-74
2023/11/30 04:58:50;;;;;;;6.10;3.15;;;-0.40;99.90;;;;;;4998927;28;20102;-74
2023/11/30 05:01:15;;;;;;;5.03;3.10;;;-0.50;99.90;;;;;;5003793;28;20042;-75
2023/11/30 05:03:41;;;;;;;4.63;3.17;;;-0.40;99.90;;;;;;4986418;28;20042;-75
2023/11/30 05:06:08;;;;;;;6.18;3.45;;;-0.50;99.90;;;;;;5004152;28;20074;-74
2023/11/30 05:08:34;;;;;;;6.78;3.35;;;-0.50;99.90;;;;;;5003899;28;20185;-74
2023/11/30 05:10:59;;;;;;;5.95;3.80;;;-0.60;99.90;;;;;;5004182;28;20053;-74
2023/11/30 05:13:25;;;;;;;6.15;4.18;;;-0.60;99.90;;;;;;4986522;28;20047;-74
2023/11/30 05:15:51;;;;;;;7.22;5.38;;;-0.60;99.90;;;;;;5003157;28;20043;-74
2023/11/30 05:18:17;;;;;;;6.15;3.83;;;-0.40;99.90;;;;;;5003828;28;20122;-74
2023/11/30 05:20:42;;;;;;;6.60;3.50;;;-0.50;99.90;;;;;;5003221;28;20113;-74
2023/11/30 05:23:08;;;;;;;5.07;3.33;;;-0.70;99.90;;;;;;5002879;28;20125;-74
2023/11/30 05:25:34;;;;;;;5.30;2.95;;;-0.70;99.90;;;;;;4979938;28;20074;-74
2023/11/30 05:28:00;;;;;;;5.18;3.13;;;-0.70;99.90;;;;;;4979010;28;20047;-74
2023/11/30 05:30:26;;;;;;;5.93;3.38;;;-0.80;99.90;;;;;;4981835;28;20414;-74
2023/11/30 05:32:52;;;;;;;6.57;3.55;;;-0.70;99.90;;;;;;4982256;28;20042;-74
2023/11/30 05:35:18;;;;;;;6.13;3.28;;;-0.70;99.90;;;;;;4982843;28;20042;-74
2023/11/30 05:37:44;;;;;;;8.65;6.95;;;-0.70;99.90;;;;;;4982048;28;20043;-74
2023/11/30 05:40:11;;;;;;;6.85;4.55;;;-0.80;99.90;;;;;;4982136;28;20050;-74
2023/11/30 05:42:37;;;;;;;4.68;3.20;;;-0.80;99.90;;;;;;4983409;28;20098;-74
2023/11/30 05:45:03;;;;;;;6.97;3.45;;;-0.80;99.90;;;;;;4965478;28;20042;-73
2023/11/30 05:47:28;;;;;;;4.03;2.25;;;-0.70;99.90;;;;;;4982734;28;20039;-73
2023/11/30 05:49:54;;;;;;;4.75;2.70;;;-0.80;99.90;;;;;;4982788;28;20073;-74
2023/11/30 05:52:20;;;;;;;5.15;3.05;;;-0.80;99.90;;;;;;4982524;28;20046;-74
2023/11/30 05:54:45;;;;;;;4.10;2.83;;;-0.70;99.90;;;;;;4983195;28;20047;-74
2023/11/30 05:57:11;;;;;;;4.82;3.42;;;-0.80;99.90;;;;;;4981865;28;20039;-74
2023/11/30 05:59:37;;;;;;;6.68;4.22;;;-0.90;99.90;;;;;;4982765;28;20035;-74
2023/11/30 06:02:04;;;;;;;9.65;3.97;;;-0.90;99.90;;;;;;4981792;28;20081;-74
2023/11/30 06:04:31;;;;;;;6.10;3.50;;;-0.90;99.90;;;;;;4982272;28;20077;-74
2023/11/30 06:06:57;;;;;;;7.38;4.82;;;-0.90;99.90;;;;;;4981179;28;20050;-74
2023/11/30 06:09:23;;;;;;;6.40;3.75;;;-0.90;99.90;;;;;;4982866;28;20038;-74
2023/11/30 06:11:51;;;;;;;5.15;3.90;;;-1.00;99.90;;;;;;4981881;28;20030;-74
2023/11/30 06:14:16;;;;;;;5.55;3.20;;;-0.90;99.90;;;;;;4981456;28;20046;-74
2023/11/30 06:16:42;;;;;;;3.75;2.47;;;-0.90;99.90;;;;;;4982087;28;20046;-74
2023/11/30 06:19:09;;;;;;;6.35;3.28;;;-0.90;99.90;;;;;;4964354;28;20131;-74
2023/11/30 06:21:35;;;;;;;3.90;2.90;;;-0.80;99.90;;;;;;4981328;28;20046;-74
2023/11/30 06:24:01;;;;;;;4.03;2.35;;;-1.00;99.90;;;;;;4981250;28;20067;-74
2023/11/30 06:26:26;;;;;;;5.03;3.28;;;-0.90;99.90;;;;;;4977786;28;20129;-73
2023/11/30 06:28:52;;;;;;;5.65;3.58;;;-0.90;99.90;;;;;;4978164;28;20043;-74
2023/11/30 06:31:17;;;;;;;5.22;2.75;;;-0.80;99.90;;;;;;4981495;28;20045;-74
2023/11/30 06:33:43;;;;;;;7.45;3.13;;;-0.90;99.90;;;;;;4976501;28;20039;-74
2023/11/30 06:36:09;;;;;;;3.88;2.40;;;-0.90;99.90;;;;;;4980501;28;20125;-74
2023/11/30 06:38:35;;;;;;;4.07;2.30;;;-0.90;99.90;;;;;;4979677;28;20391;-74
2023/11/30 06:41:00;;;;;;;3.22;2.17;;;-1.00;99.90;;;;;;4978257;28;20077;-74
2023/11/30 06:43:26;;;;;;;6.47;2.55;;;-0.90;99.90;;;;;;4981471;28;20038;-74
2023/11/30 06:45:52;;;;;;;4.07;2.53;;;-0.90;99.90;;;;;;4980468;28;20117;-74
2023/11/30 06:48:18;;;;;;;4.10;2.50;;;-0.80;99.90;;;;;;4980604;28;20054;-74
2023/11/30 06:50:44;;;;;;;3.53;2.55;;;-0.70;99.90;;;;;;4982589;28;20035;-73
2023/11/30 06:53:09;;;;;;;4.53;3.17;;;-0.90;99.90;;;;;;4981588;28;20039;-74
2023/11/30 06:55:35;;;;;;;4.35;2.75;;;-0.90;99.90;;;;;;4980691;28;20090;-74
2023/11/30 06:58:01;;;;;;;4.28;2.80;;;-0.90;99.90;;;;;;4982004;28;20049;-74
2023/11/30 07:00:26;;;;;;;5.57;2.72;;;-1.00;99.90;;;;;;4993604;28;20041;-73
2023/11/30 07:02:54;;;;;;;4.82;3.33;;;-1.20;99.90;;;;;;5000395;28;20046;-74
2023/11/30 07:05:20;;;;;;;4.75;2.95;;;-0.90;99.90;;;;;;5009347;28;20220;-74
2023/11/30 07:07:46;;;;;;;4.68;2.75;;;-1.00;99.90;;;;;;5017223;28;20049;-74
2023/11/30 07:10:12;;;;;;;4.97;2.80;;;-0.80;99.90;;;;;;5016475;28;20049;-73
2023/11/30 07:12:39;;;;;;;5.60;2.53;;;-0.80;99.90;;;;;;5018641;28;20049;-74
2023/11/30 07:15:07;;;;;;;3.83;2.40;;;-0.90;99.90;;;;;;5006664;28;20057;-73
2023/11/30 07:17:33;;;;;;;7.90;3.15;;;-0.80;99.90;;;;;;5017130;28;20056;-74
2023/11/30 07:19:58;;;;;;;5.00;2.95;;;-0.80;99.90;;;;;;5018113;28;20041;-74
2023/11/30 07:22:24;;;;;;;4.28;2.85;;;-0.90;99.90;;;;;;5020446;28;20042;-74
2023/11/30 07:24:51;;;;;;;5.93;3.17;;;-1.00;99.90;;;;;;5019045;28;20125;-74
2023/11/30 07:27:20;;;;;;;5.05;2.85;;;-1.10;99.90;;;;;;5019894;28;20046;-74
2023/11/30 07:29:46;;;;;;;6.07;3.72;;;-0.90;99.90;;;;;;5020725;28;20501;-74
2023/11/30 07:32:15;;;;;;;3.85;2.70;;;-0.90;99.90;;;;;;5008717;28;20035;-74
2023/11/30 07:34:41;;;;;;;4.20;2.40;;;-0.90;99.90;;;;;;5018095;28;20052;-74
2023/11/30 07:37:07;;;;;;;3.47;2.30;;;-0.90;99.90;;;;;;5004002;28;20045;-74
2023/11/30 07:39:32;;;;;;;4.22;2.60;;;-1.00;99.90;;;;;;5020593;28;20437;-74
2023/11/30 07:41:58;;;;;;;4.57;2.47;;;-1.00;99.90;;;;;;5020673;28;20038;-74
2023/11/30 07:44:26;;;;;;;4.50;2.75;;;-0.80;99.90;;;;;;5020317;28;20042;-74
2023/11/30 07:46:52;;;;;;;4.18;2.60;;;-0.90;99.90;;;;;;5002896;28;20050;-74
2023/11/30 07:49:17;;;;;;;4.70;2.50;;;-0.90;99.90;;;;;;5021518;28;20048;-74
2023/11/30 07:51:43;;;;;;;3.42;2.42;;;-0.80;99.90;;;;;;5019201;28;20045;-73
2023/11/30 07:54:08;;;;;;;3.63;2.55;;;-0.90;99.90;;;;;;5012230;28;20176;-73
2023/11/30 07:56:34;;;;;;;5.03;2.22;;;-0.80;99.90;;;;;;5004061;28;20043;-73
2023/11/30 07:59:00;;;;;;;4.93;2.88;;;-0.80;99.90;;;;;;5017392;28;20521;-73
2023/11/30 08:01:27;;;;;;;4.90;3.00;;;-0.80;99.90;;;;;;5018194;28;20727;-73
2023/11/30 08:03:53;;;;;;;4.85;2.92;;;-0.90;99.90;;;;;;5017777;28;20048;-73
2023/11/30 08:06:19;;;;;;;5.13;3.28;;;-0.70;99.90;;;;;;5020994;28;20038;-73
2023/11/30 08:08:45;;;;;;;5.72;2.80;;;-0.90;99.90;;;;;;5016244;28;20048;-73
2023/11/30 08:11:12;;;;;;;5.88;3.55;;;-0.70;99.90;;;;;;5017640;28;20470;-73
2023/11/30 08:13:38;;;;;;;5.38;3.00;;;-0.70;99.90;;;;;;5016923;28;20037;-72
2023/11/30 08:16:04;;;;;;;5.55;3.05;;;-0.70;99.90;;;;;;4991965;28;20514;-72
2023/11/30 08:18:31;;;;;;;5.65;3.10;;;-0.80;99.90;;;;;;4987854;28;20041;-73
2023/11/30 08:20:59;;;;;;;4.78;3.03;;;-0.70;99.90;;;;;;4985947;28;20038;-72
2023/11/30 08:23:25;;;;;;;5.53;3.38;;;-0.70;99.90;;;;;;4998158;28;20050;-73
2023/11/30 08:25:50;;;;;;;5.40;3.25;;;-0.50;99.90;;;;;;4999515;28;20410;-73
2023/11/30 08:28:16;;;;;;;4.72;3.00;;;-0.40;99.90;;;;;;5003410;28;20046;-74
2023/11/30 08:30:43;;;;;;;5.38;2.90;;;-0.40;99.90;;;;;;4985830;28;20052;-73
2023/11/30 08:33:09;;;;;;;5.68;2.92;;;-0.30;99.90;;;;;;4996661;28;20130;-72
2023/11/30 08:35:34;;;;;;;5.45;2.97;;;-0.40;99.90;;;;;;4997830;28;20490;-73
2023/11/30 08:38:00;;;;;;;5.82;3.22;;;-0.20;99.90;;;;;;4997973;28;20031;-72
2023/11/30 08:40:25;;;;;;;5.28;3.30;;;-0.20;99.90;;;;;;5019614;28;20062;-73
2023/11/30 08:42:51;;;;;;;5.75;3.47;;;-0.20;99.90;;;;;;4994927;28;20387;-72
2023/11/30 08:45:18;;;;;;;7.13;3.30;;;-0.20;99.90;;;;;;4995987;28;20057;-72
2023/11/30 08:47:43;;;;;;;5.85;2.88;;;0.00;99.90;;;;;;5013309;28;20102;-73
2023/11/30 08:50:09;;;;;;;5.40;2.92;;;-0.10;99.90;;;;;;5030526;28;20093;-72
2023/11/30 08:52:35;;;;;;;7.68;3.42;;;-0.20;99.90;;;;;;4996836;28;20433;-73
2023/11/30 08:55:01;;;;;;;6.43;3.72;;;-0.10;99.90;;;;;;4995469;28;20706;-72
2023/11/30 08:57:26;;;;;;;6.68;3.85;;;-0.10;99.90;;;;;;4997855;28;20030;-72
2023/11/30 08:59:52;;;;;;;15.68;4.28;;;0.00;99.90;;;;;;5030399;28;20096;-73
2023/11/30 09:02:19;;;;;;;6.25;4.40;;;0.00;99.90;;;;;;4995407;28;20065;-72
2023/11/30 09:04:45;;;;;;;6.40;3.75;;;0.20;99.90;;;;;;4980364;28;20046;-73
2023/11/30 09:07:10;;;;;;;6.38;3.50;;;0.00;99.90;;;;;;4996877;28;20121;-72
2023/11/30 09:09:36;;;;;;;11.40;4.40;;;0.20;99.90;;;;;;5030716;28;20125;-72
2023/11/30 09:12:02;;;;;;;8.02;4.10;;;0.10;99.90;;;;;;4995821;28;20502;-72
2023/11/30 09:14:30;;;;;;;7.85;4.32;;;0.20;99.90;;;;;;4997966;28;20134;-73
2023/11/30 09:16:55;;;;;;;8.35;5.15;;;0.20;99.90;;;;;;4996307;28;20049;-72
2023/11/30 09:19:21;;;;;;;7.93;4.65;;;0.20;99.90;;;;;;4997691;28;20398;-72
2023/11/30 09:21:47;;;;;;;9.80;5.13;;;0.40;99.90;;;;;;5029182;28;20038;-73
2023/11/30 09:24:12;;;;;;;11.13;6.50;;;0.40;99.90;;;;;;5030553;28;20421;-73
2023/11/30 09:26:38;;;;;;;18.20;6.15;;;0.50;99.90;;;;;;5031809;28;20038;-74
2023/11/30 09:29:03;;;;;;;8.77;5.53;;;0.30;99.90;;;;;;5031367;28;20050;-72
2023/11/30 09:31:30;;;;;;;11.32;6.18;;;0.50;99.90;;;;;;4998656;28;20121;-73
2023/11/30 09:33:55;;;;;;;9.30;5.15;;;0.60;99.90;;;;;;4997828;28;20098;-74
2023/11/30 09:36:22;;;;;;;8.93;4.95;;;0.70;99.90;;;;;;4999550;28;20369;-72
2023/11/30 09:38:47;;;;;;;9.10;4.78;;;0.80;99.90;;;;;;4997317;28;20042;-73
2023/11/30 09:41:16;;;;;;;6.93;3.92;;;0.70;99.90;;;;;;4996635;28;20117;-73
2023/11/30 09:43:44;;;;;;;10.13;5.38;;;0.70;99.90;;;;;;4996497;28;20430;-72
2023/11/30 09:46:09;;;;;;;18.23;6.10;;;0.90;99.90;;;;;;4994018;28;20053;-73
2023/11/30 09:48:35;;;;;;;8.88;5.10;;;0.70;99.90;;;;;;4999656;28;20498;-73
2023/11/30 09:51:02;;;;;;;9.00;5.15;;;0.90;99.90;;;;;;5031265;28;20549;-73
2023/11/30 09:53:27;;;;;;;11.23;6.28;;;1.10;99.90;;;;;;4983173;28;20045;-73
2023/11/30 09:55:53;;;;;;;9.65;5.28;;;1.10;99.90;;;;;;5031437;28;20042;-74
2023/11/30 09:58:19;;;;;;;10.15;5.45;;;1.10;99.90;;;;;;5003311;28;20050;-74
2023/11/30 10:00:45;;;;;;;24.73;6.45;;;1.20;99.90;;;;;;4995331;28;20048;-74
2023/11/30 10:03:10;;;;;;;8.95;5.53;;;1.10;99.90;;;;;;4999149;28;20034;-74
2023/11/30 10:05:36;;;;;;;8.48;4.75;;;1.10;99.90;;;;;;4980316;28;20130;-73
2023/11/30 10:08:03;;;;;;;9.15;5.10;;;1.20;99.90;;;;;;4990690;28;20046;-73
2023/11/30 10:10:29;;;;;;;10.05;5.40;;;1.20;99.90;;;;;;4993288;28;20042;-74
2023/11/30 10:12:54;;;;;;;9.65;5.15;;;1.20;99.90;;;;;;4987884;28;20776;-74
2023/11/30 10:15:21;;;;;;;8.63;4.97;;;1.30;99.90;;;;;;4979083;28;20055;-73
2023/11/30 10:17:48;;;;;;;15.82;5.78;;;1.40;99.90;;;;;;4978165;28;20045;-73
2023/11/30 10:20:14;;;;;;;8.15;4.75;;;1.20;99.90;;;;;;4976491;28;20585;-73
2023/11/30 10:22:40;;;;;;;10.98;5.95;;;1.40;99.90;;;;;;4996988;28;20046;-73
2023/11/30 10:25:07;;;;;;;9.18;5.10;;;1.40;99.90;;;;;;5014288;28;20046;-74
2023/11/30 10:27:35;;;;;;;12.07;6.07;;;1.50;99.90;;;;;;4987036;28;20092;-74
2023/11/30 10:30:03;;;;;;;10.32;5.22;;;1.40;99.90;;;;;;4989899;28;20031;-73
2023/11/30 10:32:35;;;;;;;10.00;5.88;;;1.30;99.90;;;;;;4995698;28;20038;-74
2023/11/30 10:35:05;;;;;;;9.32;5.65;;;1.30;99.90;;;;;;4984467;28;20049;-74
2023/11/30 10:37:36;;;;;;;9.45;5.55;;;1.40;99.90;;;;;;4999315;28;20113;-74
2023/11/30 10:40:11;;;;;;;10.55;6.72;;;1.50;99.90;;;;;;5020282;28;20076;-74
2023/11/30 10:42:37;;;;;;;9.82;5.50;;;1.50;99.90;;;;;;5022010;28;20056;-74
2023/11/30 10:45:04;;;;;;;13.88;5.97;;;1.50;99.90;;;;;;5019146;28;20046;-74
2023/11/30 10:47:30;;;;;;;10.30;5.85;;;1.50;99.90;;;;;;5017575;28;20041;-74
2023/11/30 10:50:00;;;;;;;7.72;5.10;;;1.50;99.90;;;;;;5015435;28;20131;-74
2023/11/30 10:52:27;;;;;;;10.15;6.55;;;1.60;99.90;;;;;;5015672;28;20034;-74
2023/11/30 10:55:09;;;;;;;10.85;5.60;;;1.40;99.90;;;;;;5021039;28;20053;-75
2023/11/30 10:57:35;;;;;;;15.77;6.80;;;1.40;99.90;;;;;;5007424;28;20571;-74
2023/11/30 11:00:01;;;;;;;10.45;5.82;;;1.50;99.90;;;;;;5003158;28;20042;-75
2023/11/30 11:02:47;;;;;;;9.77;6.32;;;1.60;99.90;;;;;;5005220;28;20065;-75
2023/11/30 11:05:18;;;;;;;12.55;5.72;;;1.50;99.90;;;;;;5002359;28;20038;-74
2023/11/30 11:07:51;;;;;;;10.43;5.55;;;1.40;99.90;;;;;;5000667;28;20454;-75
2023/11/30 11:10:34;;;;;;;10.68;5.85;;;1.50;99.90;;;;;;4996322;28;20053;-75
2023/11/30 11:13:01;;;;;;;9.85;5.45;;;1.30;99.90;;;;;;4995527;28;20556;-74
2023/11/30 11:15:28;;;;;;;9.15;5.57;;;1.40;99.90;;;;;;4996535;28;20046;-74
2023/11/30 11:18:07;;;;;;;9.20;5.72;;;1.50;99.90;;;;;;4995096;28;20034;-74
2023/11/30 11:20:35;;;;;;;11.27;6.57;;;1.40;99.90;;;;;;4999646;28;20046;-74
2023/11/30 11:23:04;;;;;;;11.75;6.90;;;1.30;99.90;;;;;;5000383;28;20046;-75
2023/11/30 11:25:50;;;;;;;10.23;6.65;;;1.40;99.90;;;;;;4999492;28;20502;-74
2023/11/30 11:28:19;;;;;;;11.75;6.75;;;1.50;99.90;;;;;;4995600;28;20061;-74
2023/11/30 11:30:50;;;;;;;12.95;6.85;;;1.40;99.90;;;;;;4984911;28;20105;-75
2023/11/30 11:33:17;;;;;;;11.93;7.18;;;1.60;99.90;;;;;;5001955;28;20030;-75
2023/11/30 11:35:43;;;;;;;13.80;7.20;;;1.60;99.90;;;;;;4997387;28;20502;-74
2023/11/30 11:38:09;;;;;;;11.38;6.82;;;1.60;99.90;;;;;;4998935;28;20042;-74
2023/11/30 11:40:41;;;;;;;12.48;6.90;;;1.50;99.90;;;;;;5031101;28;20042;-74
2023/11/30 11:43:07;;;;;;;13.88;7.85;;;1.50;99.90;;;;;;4998305;28;20049;-74
2023/11/30 11:45:33;;;;;;;12.65;7.22;;;1.50;99.90;;;;;;5001735;28;20126;-74
2023/11/30 11:47:59;;;;;;;12.88;7.70;;;1.70;99.90;;;;;;5006485;28;20049;-74
2023/11/30 11:50:25;;;;;;;13.10;7.60;;;1.60;99.90;;;;;;4997960;28;20077;-74
2023/11/30 11:53:01;;;;;;;12.25;6.93;;;1.70;99.90;;;;;;5004066;28;20417;-74
2023/11/30 11:55:27;;;;;;;15.57;8.60;;;1.60;99.90;;;;;;5001821;28;20062;-73
2023/11/30 11:57:55;;;;;;;14.07;6.35;;;1.60;99.90;;;;;;4999917;28;20042;-73
2023/11/30 12:00:22;;;;;;;15.13;8.05;;;1.60;99.90;;;;;;5006598;28;20034;-74
2023/11/30 12:02:49;;;;;;;13.73;6.57;;;1.50;99.90;;;;;;5002653;28;20117;-74
2023/11/30 12:05:20;;;;;;;12.93;7.20;;;1.70;99.90;;;;;;4999871;28;20050;-74
2023/11/30 12:07:56;;;;;;;14.27;7.53;;;1.80;99.90;;;;;;5000600;28;20048;-74
2023/11/30 12:10:37;;;;;;;15.32;7.65;;;1.50;99.90;;;;;;4998923;28;20149;-74
2023/11/30 12:13:03;;;;;;;13.70;7.10;;;1.50;99.90;;;;;;5001177;28;20038;-74
2023/11/30 12:15:29;;;;;;;14.35;7.40;;;1.70;99.90;;;;;;4985680;28;20053;-75
2023/11/30 12:17:55;;;;;;;12.32;7.47;;;1.70;99.90;;;;;;5003350;28;20046;-74
2023/11/30 12:20:21;;;;;;;14.63;8.35;;;1.70;99.90;;;;;;5021823;28;20410;-74
2023/11/30 12:22:47;;;;;;;14.18;7.55;;;1.80;99.90;;;;;;5003073;28;20038;-74
2023/11/30 12:25:13;;;;;;;15.65;8.40;;;1.80;99.90;;;;;;5003346;28;20042;-74
2023/11/30 12:27:39;;;;;;;16.55;8.50;;;1.80;99.90;;;;;;5003230;28;20054;-74
2023/11/30 12:30:06;;;;;;;15.07;8.43;;;1.70;99.90;;;;;;5003926;28;20034;-74
2023/11/30 12:32:31;;;;;;;17.95;9.13;;;1.90;99.90;;;;;;5004526;28;20129;-74
2023/11/30 12:34:59;;;;;;;15.55;7.80;;;1.90;99.90;;;;;;5005586;28;20050;-74
2023/11/30 12:37:25;;;;;;;16.80;8.65;;;1.90;99.90;;;;;;5006193;28;20053;-74
2023/11/30 12:39:51;;;;;;;15.80;8.20;;;1.80;99.90;;;;;;5005653;28;20053;-74
2023/11/30 12:42:16;;;;;;;15.60;9.30;;;1.70;99.90;;;;;;5005344;28;20047;-74
2023/11/30 12:44:43;;;;;;;18.50;8.65;;;1.90;99.90;;;;;;5005746;28;20049;-74
2023/11/30 12:47:12;;;;;;;15.63;8.60;;;1.80;99.90;;;;;;5005487;28;20115;-74